Time;durP1;ratioP1;P1;durP2;ratioP2;P2;SDS_P1;SDS_P2;PMS_P1;PMS_P2;Temp;Humidity;BMP_temperature;BMP_pressure;BME280_temperature;BME280_humidity;BME280_pressure;Samples;Min_cycle;Max_cycle;Signal;HPM_P1;HPM_P2
2022/06/28 00:01:59;;;;;;;;;;;;;;;;;;5101780;28;19931;-87
2022/06/28 00:04:24;;;;;;;;;;;;;;;;;;5101489;28;19915;-87
2022/06/28 00:06:50;;;;;;;;;;;;;;;;;;5101434;28;19967;-88
2022/06/28 00:09:15;;;;;;;;;;;;;;;;;;5101298;28;19929;-87
2022/06/28 00:11:40;;;;;;;;;;;;;;;;;;5101694;28;19993;-87
2022/06/28 00:16:04;;;;;;;;;;;;;;;;;;5101016;28;19919;-88
2022/06/28 00:16:50;;;;;;;;;;;;;;;;;;5101535;28;19919;-88
2022/06/28 00:19:15;;;;;;;;;;;;;;;;;;5100994;28;20320;-87
2022/06/28 00:21:40;;;;;;;;;;;;;;;;;;5101974;28;20353;-87
2022/06/28 00:24:05;;;;;;;;;;;;;;;;;;5101098;28;20003;-88
2022/06/28 00:26:31;;;;;;;;;;;;;;;;;;5100983;28;19998;-87
2022/06/28 00:28:56;;;;;;;;;;;;;;;;;;5099839;28;19908;-87
2022/06/28 00:31:24;;;;;;;;;;;;;;;;;;5099388;28;20350;-87
2022/06/28 00:33:50;;;;;;;;;;;;;;;;;;5101199;28;20319;-88
2022/06/28 00:36:15;;;;;;;;;;;;;;;;;;5100770;28;19919;-87
2022/06/28 00:38:40;;;;;;;;;;;;;;;;;;5099893;28;19978;-87
2022/06/28 00:41:05;;;;;;;;;;;;;;;;;;5101931;28;19908;-87
2022/06/28 00:43:30;;;;;;;;;;;;;;;;;;5100449;28;20343;-87
2022/06/28 00:45:55;;;;;;;;;;;;;;;;;;5100871;28;20247;-87
2022/06/28 00:48:20;;;;;;;;;;;;;;;;;;5099517;28;19908;-87
2022/06/28 00:50:45;;;;;;;;;;;;;;;;;;5100650;28;19914;-87
2022/06/28 00:53:11;;;;;;;;;;;;;;;;;;5099421;28;20368;-87
2022/06/28 00:55:36;;;;;;;;;;;;;;;;;;5100316;28;19927;-87
2022/06/28 00:58:01;;;;;;;;;;;;;;;;;;5100355;28;19909;-88
2022/06/28 01:00:26;;;;;;;;;;;;;;;;;;5099236;28;20318;-87
2022/06/28 01:02:51;;;;;;;;;;;;;;;;;;5099628;28;19912;-87
2022/06/28 01:05:16;;;;;;;;;;;;;;;;;;5100840;28;19908;-88
2022/06/28 01:07:41;;;;;;;;;;;;;;;;;;5099316;28;19915;-88
2022/06/28 01:10:06;;;;;;;;;;;;;;;;;;5100297;28;20018;-88
2022/06/28 01:12:31;;;;;;;;;;;;;;;;;;5100233;28;20046;-88
2022/06/28 01:14:57;;;;;;;;;;;;;;;;;;5100345;28;19912;-88
2022/06/28 01:17:22;;;;;;;;;;;;;;;;;;5100794;28;19908;-88
2022/06/28 01:19:47;;;;;;;;;;;;;;;;;;5105400;28;19909;-87
2022/06/28 01:22:12;;;;;;;;;;;;;;;;;;5100262;28;19904;-87
2022/06/28 01:24:37;;;;;;;;;;;;;;;;;;5098734;28;19912;-88
2022/06/28 01:27:02;;;;;;;;;;;;;;;;;;5078593;28;20310;-87
2022/06/28 01:29:27;;;;;;;;;;;;;;;;;;5079336;28;19957;-87
2022/06/28 01:31:52;;;;;;;;;;;;;;;;;;5078079;28;19945;-88
2022/06/28 01:34:17;;;;;;;;;;;;;;;;;;5079697;28;19916;-87
2022/06/28 01:36:43;;;;;;;;;;;;;;;;;;5077740;28;20240;-88
2022/06/28 01:39:08;;;;;;;;;;;;;;;;;;5078629;28;19916;-87
2022/06/28 01:41:33;;;;;;;;;;;;;;;;;;5079037;28;19950;-88
2022/06/28 01:43:58;;;;;;;;;;;;;;;;;;5077813;28;20003;-87
2022/06/28 01:46:23;;;;;;;;;;;;;;;;;;5077985;28;19909;-87
2022/06/28 01:48:48;;;;;;;;;;;;;;;;;;5078216;28;19908;-87
2022/06/28 01:51:13;;;;;;;;;;;;;;;;;;5078133;28;19967;-87
2022/06/28 01:53:38;;;;;;;;;;;;;;;;;;5076403;28;19978;-87
2022/06/28 01:56:03;;;;;;;;;;;;;;;;;;5077511;28;19966;-87
2022/06/28 01:58:29;;;;;;;;;;;;;;;;;;5077509;28;19912;-87
2022/06/28 02:00:54;;;;;;;;;;;;;;;;;;5085870;22;20011;-87
2022/06/28 02:03:19;;;;;;;;;;;;;;;;;;5078076;28;19976;-87
2022/06/28 02:05:44;;;;;;;;;;;;;;;;;;5077959;28;19915;-87
2022/06/28 02:08:10;;;;;;;;;;;;;;;;;;5077770;28;19985;-87
2022/06/28 02:10:35;;;;;;;;;;;;;;;;;;5077704;28;19923;-87
2022/06/28 02:13:00;;;;;;;;;;;;;;;;;;5077649;28;19912;-87
2022/06/28 02:15:25;;;;;;;;;;;;;;;;;;5077801;28;19912;-87
2022/06/28 02:17:50;;;;;;;;;;;;;;;;;;5077414;28;19991;-87
2022/06/28 02:20:15;;;;;;;;;;;;;;;;;;5060829;28;20278;-87
2022/06/28 02:22:40;;;;;;;;;;;;;;;;;;5078086;28;19908;-87
2022/06/28 02:25:05;;;;;;;;;;;;;;;;;;5077219;28;20295;-87
2022/06/28 02:27:31;;;;;;;;;;;;;;;;;;5077511;28;20416;-87
2022/06/28 02:29:56;;;;;;;;;;;;;;;;;;5076983;28;19908;-87
2022/06/28 02:32:21;;;;;;;;;;;;;;;;;;5077360;28;19955;-87
2022/06/28 02:40:24;;;;;;;;;;;;;;;;;;5077679;28;19962;-88
2022/06/28 02:42:49;;;;;;;;;;;;;;;;;;5077227;28;20279;-87
2022/06/28 02:45:14;;;;;;;;;;;;;;;;;;5077213;28;20359;-88
2022/06/28 02:47:39;;;;;;;;;;;;;;;;;;5076390;28;19971;-87
2022/06/28 02:50:05;;;;;;;;;;;;;;;;;;5058535;28;20359;-87
2022/06/28 02:52:30;;;;;;;;;;;;;;;;;;5076456;28;19909;-87
2022/06/28 02:54:55;;;;;;;;;;;;;;;;;;5077420;28;19912;-87
2022/06/28 02:57:20;;;;;;;;;;;;;;;;;;5079791;28;19913;-87
2022/06/28 02:59:45;;;;;;;;;;;;;;;;;;5077795;28;19909;-87
2022/06/28 03:02:10;;;;;;;;;;;;;;;;;;5058827;28;19924;-87
2022/06/28 03:04:35;;;;;;;;;;;;;;;;;;5058592;28;20363;-88
2022/06/28 03:07:00;;;;;;;;;;;;;;;;;;5078625;28;20004;-88
2022/06/28 03:09:25;;;;;;;;;;;;;;;;;;5081023;28;20019;-88
2022/06/28 03:11:50;;;;;;;;;;;;;;;;;;5076978;28;19909;-87
2022/06/28 03:14:16;;;;;;;;;;;;;;;;;;5076563;28;20279;-87
2022/06/28 03:16:41;;;;;;;;;;;;;;;;;;5076642;28;19908;-87
2022/06/28 03:19:06;;;;;;;;;;;;;;;;;;5077568;28;20339;-87
2022/06/28 03:21:31;;;;;;;;;;;;;;;;;;5076742;28;19912;-87
2022/06/28 03:23:56;;;;;;;;;;;;;;;;;;5076355;28;19908;-87
2022/06/28 03:26:21;;;;;;;;;;;;;;;;;;5075577;28;19914;-87
2022/06/28 03:28:47;;;;;;;;;;;;;;;;;;5058051;28;19957;-87
2022/06/28 03:31:12;;;;;;;;;;;;;;;;;;5075882;28;19915;-87
2022/06/28 03:33:37;;;;;;;;;;;;;;;;;;5076849;28;19999;-87
2022/06/28 03:36:02;;;;;;;;;;;;;;;;;;5076844;28;19913;-87
2022/06/28 03:38:27;;;;;;;;;;;;;;;;;;5077153;28;19908;-87
2022/06/28 03:40:52;;;;;;;;;;;;;;;;;;5076813;28;20276;-87
2022/06/28 03:43:17;;;;;;;;;;;;;;;;;;5076104;28;19908;-87
2022/06/28 03:45:42;;;;;;;;;;;;;;;;;;5075965;28;19908;-87
2022/06/28 03:48:07;;;;;;;;;;;;;;;;;;5075923;28;19908;-87
2022/06/28 03:50:33;;;;;;;;;;;;;;;;;;5058179;28;20359;-87
2022/06/28 03:52:58;;;;;;;;;;;;;;;;;;5076674;28;19908;-87
2022/06/28 03:55:23;;;;;;;;;;;;;;;;;;5076275;28;19913;-87
2022/06/28 03:57:48;;;;;;;;;;;;;;;;;;5078466;28;19915;-87
2022/06/28 04:00:13;;;;;;;;;;;;;;;;;;5080385;28;20008;-87
2022/06/28 04:02:38;;;;;;;;;;;;;;;;;;5061784;28;19921;-87
2022/06/28 04:05:03;;;;;;;;;;;;;;;;;;5080201;28;19912;-87
2022/06/28 04:07:28;;;;;;;;;;;;;;;;;;5079819;28;19909;-87
2022/06/28 04:09:54;;;;;;;;;;;;;;;;;;5079711;28;19975;-87
2022/06/28 04:12:19;;;;;;;;;;;;;;;;;;5079209;28;19954;-87
2022/06/28 04:14:44;;;;;;;;;;;;;;;;;;5079293;28;19913;-87
2022/06/28 04:17:09;;;;;;;;;;;;;;;;;;5080172;28;19909;-87
2022/06/28 04:19:34;;;;;;;;;;;;;;;;;;5079657;28;20379;-87
2022/06/28 04:22:00;;;;;;;;;;;;;;;;;;5079126;28;19915;-87
2022/06/28 04:24:25;;;;;;;;;;;;;;;;;;5079324;28;19947;-87
2022/06/28 04:26:50;;;;;;;;;;;;;;;;;;5061681;28;20023;-87
2022/06/28 04:29:15;;;;;;;;;;;;;;;;;;5079872;28;19909;-87
2022/06/28 04:31:40;;;;;;;;;;;;;;;;;;5078630;28;20359;-87
2022/06/28 04:34:05;;;;;;;;;;;;;;;;;;5079470;28;19909;-87
2022/06/28 04:36:30;;;;;;;;;;;;;;;;;;5079504;28;19916;-87
2022/06/28 04:38:55;;;;;;;;;;;;;;;;;;5078918;28;19931;-87
2022/06/28 04:41:24;;;;;;;;;;;;;;;;;;5078832;28;19915;-87
2022/06/28 04:43:49;;;;;;;;;;;;;;;;;;5079336;28;19998;-87
2022/06/28 04:46:14;;;;;;;;;;;;;;;;;;5079475;28;19912;-87
2022/06/28 04:48:39;;;;;;;;;;;;;;;;;;5079486;28;19912;-87
2022/06/28 04:51:13;;;;;;;;;;;;;;;;;;5079125;28;19909;-87
2022/06/28 04:53:39;;;;;;;;;;;;;;;;;;5061513;28;20279;-87
2022/06/28 04:56:04;;;;;;;;;;;;;;;;;;5079184;28;20423;-88
2022/06/28 04:58:30;;;;;;;;;;;;;;;;;;5079326;28;19916;-87
2022/06/28 05:00:55;;;;;;;;;;;;;;;;;;5079292;28;20337;-87
2022/06/28 05:03:20;;;;;;;;;;;;;;;;;;5079320;28;20006;-88
2022/06/28 05:05:45;;;;;;;;;;;;;;;;;;5079118;28;20334;-88
2022/06/28 05:08:10;;;;;;;;;;;;;;;;;;5079175;28;19916;-88
2022/06/28 05:10:38;;;;;;;;;;;;;;;;;;5060587;28;19962;-88
2022/06/28 05:13:03;;;;;;;;;;;;;;;;;;5085935;28;19964;-87
2022/06/28 05:15:28;;;;;;;;;;;;;;;;;;5078636;28;19955;-87
2022/06/28 05:17:53;;;;;;;;;;;;;;;;;;5061234;28;19916;-87
2022/06/28 05:20:18;;;;;;;;;;;;;;;;;;5060871;28;19912;-88
2022/06/28 05:22:46;;;;;;;;;;;;;;;;;;5079007;28;20519;-88
2022/06/28 05:25:11;;;;;;;;;;;;;;;;;;5078716;28;20359;-87
2022/06/28 05:27:36;;;;;;;;;;;;;;;;;;5077992;28;19935;-87
2022/06/28 05:30:01;;;;;;;;;;;;;;;;;;5073563;28;20283;-88
2022/06/28 05:32:27;;;;;;;;;;;;;;;;;;5070808;28;19944;-88
2022/06/28 05:34:52;;;;;;;;;;;;;;;;;;5075612;28;19916;-88
2022/06/28 05:37:17;;;;;;;;;;;;;;;;;;5077449;28;19912;-87
2022/06/28 05:39:42;;;;;;;;;;;;;;;;;;5077640;28;19943;-87
2022/06/28 05:42:07;;;;;;;;;;;;;;;;;;5077942;28;19954;-88
2022/06/28 05:44:33;;;;;;;;;;;;;;;;;;5078606;28;19941;-88
2022/06/28 05:46:58;;;;;;;;;;;;;;;;;;5074605;28;19932;-88
2022/06/28 05:49:23;;;;;;;;;;;;;;;;;;5074923;28;20327;-87
2022/06/28 05:51:48;;;;;;;;;;;;;;;;;;5075131;28;19941;-87
2022/06/28 05:54:13;;;;;;;;;;;;;;;;;;5074849;28;19956;-88
2022/06/28 05:56:38;;;;;;;;;;;;;;;;;;5075052;28;19926;-87
2022/06/28 05:59:04;;;;;;;;;;;;;;;;;;5069725;28;19968;-88
2022/06/28 06:01:29;;;;;;;;;;;;;;;;;;5060985;28;20067;-88
2022/06/28 06:03:54;;;;;;;;;;;;;;;;;;5061389;28;20405;-88
2022/06/28 06:06:22;;;;;;;;;;;;;;;;;;5064737;28;19953;-88
2022/06/28 06:08:47;;;;;;;;;;;;;;;;;;5067629;28;19930;-88
2022/06/28 06:11:12;;;;;;;;;;;;;;;;;;5050090;28;19913;-88
2022/06/28 06:13:37;;;;;;;;;;;;;;;;;;5057573;28;20340;-88
2022/06/28 06:16:02;;;;;;;;;;;;;;;;;;5055115;28;20371;-88
2022/06/28 06:18:27;;;;;;;;;;;;;;;;;;5014760;28;19955;-88
2022/06/28 06:20:52;;;;;;;;;;;;;;;;;;5030304;28;19920;-89
2022/06/28 06:23:17;;;;;;;;;;;;;;;;;;4983951;28;20049;-89
2022/06/28 06:25:45;;;;;;;;;;;;;;;;;;4938170;28;21662;-89
2022/06/28 06:28:10;;;;;;;;;;;;;;;;;;4922682;28;20510;-88
2022/06/28 06:30:36;;;;;;;;;;;;;;;;;;4937893;28;19928;-89
2022/06/28 06:33:01;;;;;;;;;;;;;;;;;;4967457;28;19980;-89
2022/06/28 06:35:27;;;;;;;;;;;;;;;;;;4971978;28;20566;-89
2022/06/28 06:37:53;;;;;;;;;;;;;;;;;;4980363;28;20015;-89
2022/06/28 06:40:19;;;;;;;;;;;;;;;;;;4978691;28;19928;-89
2022/06/28 06:42:44;;;;;;;;;;;;;;;;;;4978273;28;20039;-88
2022/06/28 06:45:09;;;;;;;;;;;;;;;;;;4979476;28;22140;-89
2022/06/28 06:47:35;;;;;;;;;;;;;;;;;;4985070;28;19920;-88
2022/06/28 06:50:01;;;;;;;;;;;;;;;;;;4966142;28;23488;-88
2022/06/28 06:52:26;;;;;;;;;;;;;;;;;;5003779;28;19920;-89
2022/06/28 06:54:51;;;;;;;;;;;;;;;;;;4976572;28;19931;-88
2022/06/28 06:57:16;;;;;;;;;;;;;;;;;;5004325;28;19974;-88
2022/06/28 06:59:41;;;;;;;;;;;;;;;;;;4976530;28;19927;-88
2022/06/28 07:02:08;;;;;;;;;;;;;;;;;;4959069;28;20055;-88
2022/06/28 07:04:33;;;;;;;;;;;;;;;;;;4948910;28;19920;-89
2022/06/28 07:07:00;;;;;;;;;;;;;;;;;;4949366;28;20152;-89
2022/06/28 07:09:25;;;;;;;;;;;;;;;;;;5027106;28;19920;-89
2022/06/28 07:11:58;;;;;;;;;;;;;;;;;;4990859;28;19927;-88
2022/06/28 07:14:25;;;;;;;;;;;;;;;;;;4983606;28;19929;-88
2022/06/28 07:16:56;;;;;;;;;;;;;;;;;;4987146;28;19925;-89
2022/06/28 07:19:24;;;;;;;;;;;;;;;;;;4988494;28;19920;-89
2022/06/28 07:21:52;;;;;;;;;;;;;;;;;;4986456;28;19921;-89
2022/06/28 07:24:17;;;;;;;;;;;;;;;;;;4980758;28;20380;-89
2022/06/28 07:26:43;;;;;;;;;;;;;;;;;;4967334;28;19921;-89
2022/06/28 07:29:08;;;;;;;;;;;;;;;;;;4966047;28;20356;-89
2022/06/28 07:31:33;;;;;;;;;;;;;;;;;;4958190;28;19921;-89
2022/06/28 07:33:58;;;;;;;;;;;;;;;;;;4944594;28;20440;-89
2022/06/28 07:36:23;;;;;;;;;;;;;;;;;;4927703;28;20114;-89
2022/06/28 07:38:48;;;;;;;;;;;;;;;;;;4967310;28;22348;-90
2022/06/28 07:41:14;;;;;;;;;;;;;;;;;;4960562;28;19920;-88
2022/06/28 07:43:39;;;;;;;;;;;;;;;;;;4957896;28;19927;-88
2022/06/28 07:46:07;;;;;;;;;;;;;;;;;;4958757;28;19920;-89
2022/06/28 07:48:32;;;;;;;;;;;;;;;;;;4973046;28;20050;-89
2022/06/28 07:53:41;;;;;;;;;;;;;;;;;;4923241;28;21466;-88
2022/06/28 07:56:06;;;;;;;;;;;;;;;;;;4861954;28;20469;-89
2022/06/28 07:58:31;;;;;;;;;;;;;;;;;;4936238;28;19920;-89
2022/06/28 08:00:57;;;;;;;;;;;;;;;;;;4966951;28;20086;-88
2022/06/28 08:03:22;;;;;;;;;;;;;;;;;;4958844;28;19927;-88
2022/06/28 08:05:47;;;;;;;;;;;;;;;;;;4967409;28;20046;-90
2022/06/28 08:08:12;;;;;;;;;;;;;;;;;;4964300;28;20071;-89
2022/06/28 08:10:37;;;;;;;;;;;;;;;;;;4977962;28;20066;-89
2022/06/28 08:13:02;;;;;;;;;;;;;;;;;;4945357;28;20039;-90
2022/06/28 08:15:47;;;;;;;;;;;;;;;;;;4965792;28;21274;-90
2022/06/28 08:18:24;;;;;;;;;;;;;;;;;;4991991;28;20033;-88
2022/06/28 08:20:57;;;;;;;;;;;;;;;;;;4976374;28;19928;-89
2022/06/28 08:23:30;;;;;;;;;;;;;;;;;;4970565;28;21337;-89
2022/06/28 08:25:55;;;;;;;;;;;;;;;;;;4999300;28;19952;-88
2022/06/28 08:28:23;;;;;;;;;;;;;;;;;;4966340;28;22624;-89
2022/06/28 08:30:48;;;;;;;;;;;;;;;;;;4954177;28;19927;-89
2022/06/28 08:33:13;;;;;;;;;;;;;;;;;;4985172;28;19920;-89
2022/06/28 08:35:38;;;;;;;;;;;;;;;;;;4994855;28;19924;-89
2022/06/28 08:38:05;;;;;;;;;;;;;;;;;;4954437;28;19920;-89
2022/06/28 08:40:30;;;;;;;;;;;;;;;;;;4947620;28;19943;-89
2022/06/28 08:42:55;;;;;;;;;;;;;;;;;;4953985;28;19921;-89
2022/06/28 08:45:21;;;;;;;;;;;;;;;;;;4972180;28;19955;-89
2022/06/28 08:47:49;;;;;;;;;;;;;;;;;;4968792;28;20059;-89
2022/06/28 08:50:14;;;;;;;;;;;;;;;;;;4972759;28;19920;-89
2022/06/28 08:52:41;;;;;;;;;;;;;;;;;;4964841;28;19921;-89
2022/06/28 08:55:06;;;;;;;;;;;;;;;;;;4972032;28;19937;-90
2022/06/28 08:57:32;;;;;;;;;;;;;;;;;;4955112;28;20009;-90
2022/06/28 08:59:58;;;;;;;;;;;;;;;;;;4975473;28;19924;-90
2022/06/28 09:02:23;;;;;;;;;;;;;;;;;;4979425;28;20066;-90
2022/06/28 09:04:49;;;;;;;;;;;;;;;;;;4966486;28;19920;-89
2022/06/28 09:07:14;;;;;;;;;;;;;;;;;;4976044;28;19921;-89
2022/06/28 09:09:40;;;;;;;;;;;;;;;;;;4977634;28;20125;-89
2022/06/28 09:12:05;;;;;;;;;;;;;;;;;;4988095;28;19928;-89
2022/06/28 09:14:30;;;;;;;;;;;;;;;;;;4969814;28;19926;-91
2022/06/28 09:16:55;;;;;;;;;;;;;;;;;;4967187;28;19924;-89
2022/06/28 09:19:21;;;;;;;;;;;;;;;;;;4967095;28;19920;-89
2022/06/28 09:21:48;;;;;;;;;;;;;;;;;;4984255;28;19930;-90
2022/06/28 09:24:13;;;;;;;;;;;;;;;;;;4983508;28;19980;-90
2022/06/28 09:26:38;;;;;;;;;;;;;;;;;;4973504;28;19920;-89
2022/06/28 09:29:04;;;;;;;;;;;;;;;;;;4967288;28;19931;-89
2022/06/28 09:31:29;;;;;;;;;;;;;;;;;;4957620;28;21303;-89
2022/06/28 09:33:54;;;;;;;;;;;;;;;;;;4943319;28;19975;-89
2022/06/28 09:36:19;;;;;;;;;;;;;;;;;;4956836;28;20699;-89
2022/06/28 09:38:44;;;;;;;;;;;;;;;;;;4957098;28;19947;-89
2022/06/28 09:41:09;;;;;;;;;;;;;;;;;;4958342;28;20001;-89
2022/06/28 09:43:35;;;;;;;;;;;;;;;;;;4957158;28;21750;-90
2022/06/28 09:46:00;;;;;;;;;;;;;;;;;;4958280;28;19928;-90
2022/06/28 09:48:25;;;;;;;;;;;;;;;;;;4943783;28;20059;-89
2022/06/28 09:50:50;;;;;;;;;;;;;;;;;;4959796;28;19921;-89
2022/06/28 09:53:15;;;;;;;;;;;;;;;;;;4968890;28;19921;-89
2022/06/28 09:55:40;;;;;;;;;;;;;;;;;;4948809;28;20068;-89
2022/06/28 09:58:06;;;;;;;;;;;;;;;;;;4947733;28;21770;-91
2022/06/28 10:00:34;;;;;;;;;;;;;;;;;;4968838;28;20005;-89
2022/06/28 10:02:59;;;;;;;;;;;;;;;;;;4949765;28;20057;-89
2022/06/28 10:05:24;;;;;;;;;;;;;;;;;;4950629;28;20017;-90
2022/06/28 10:07:49;;;;;;;;;;;;;;;;;;4959566;28;19920;-89
2022/06/28 10:10:15;;;;;;;;;;;;;;;;;;4952464;28;20475;-90
2022/06/28 10:15:24;;;;;;;;;;;;;;;;;;4961224;28;19935;-91
2022/06/28 10:17:49;;;;;;;;;;;;;;;;;;4937864;28;19921;-90
2022/06/28 10:20:14;;;;;;;;;;;;;;;;;;4919181;28;19921;-90
2022/06/28 10:22:39;;;;;;;;;;;;;;;;;;4953270;28;19928;-90
2022/06/28 10:25:05;;;;;;;;;;;;;;;;;;4975170;28;19960;-90
2022/06/28 10:27:30;;;;;;;;;;;;;;;;;;4975087;28;21128;-90
2022/06/28 10:29:55;;;;;;;;;;;;;;;;;;4896829;28;22025;-89
2022/06/28 10:32:20;;;;;;;;;;;;;;;;;;4957834;28;20119;-89
2022/06/28 10:34:45;;;;;;;;;;;;;;;;;;4987927;28;20027;-90
2022/06/28 10:37:12;;;;;;;;;;;;;;;;;;4966480;28;20214;-89
2022/06/28 10:39:37;;;;;;;;;;;;;;;;;;4976321;28;20105;-90
2022/06/28 10:42:04;;;;;;;;;;;;;;;;;;4997895;28;20971;-89
2022/06/28 10:44:29;;;;;;;;;;;;;;;;;;4976034;28;20361;-90
2022/06/28 10:46:57;;;;;;;;;;;;;;;;;;4963777;28;19959;-89
2022/06/28 10:49:22;;;;;;;;;;;;;;;;;;4984485;28;20010;-89
2022/06/28 10:51:47;;;;;;;;;;;;;;;;;;4986289;28;20019;-89
2022/06/28 10:54:12;;;;;;;;;;;;;;;;;;4997102;28;21201;-90
2022/06/28 10:56:37;;;;;;;;;;;;;;;;;;4959368;28;21000;-89
2022/06/28 10:59:03;;;;;;;;;;;;;;;;;;4966248;28;19921;-89
2022/06/28 11:01:28;;;;;;;;;;;;;;;;;;4952189;28;19998;-88
2022/06/28 11:03:53;;;;;;;;;;;;;;;;;;4983481;28;20367;-89
2022/06/28 11:06:18;;;;;;;;;;;;;;;;;;4954096;28;19920;-91
2022/06/28 11:08:44;;;;;;;;;;;;;;;;;;4976954;28;20087;-88
2022/06/28 11:11:09;;;;;;;;;;;;;;;;;;5002304;28;19947;-88
2022/06/28 11:13:34;;;;;;;;;;;;;;;;;;5016110;28;19938;-88
2022/06/28 11:15:59;;;;;;;;;;;;;;;;;;5017622;28;20695;-89
2022/06/28 11:18:24;;;;;;;;;;;;;;;;;;5038306;28;21261;-89
2022/06/28 11:20:50;;;;;;;;;;;;;;;;;;5032501;28;20521;-89
2022/06/28 11:23:15;;;;;;;;;;;;;;;;;;5011337;28;19921;-89
2022/06/28 11:28:24;;;;;;;;;;;;;;;;;;5047946;28;19928;-89
2022/06/28 11:30:49;;;;;;;;;;;;;;;;;;5044472;28;19916;-88
2022/06/28 11:33:14;;;;;;;;;;;;;;;;;;5027798;28;20017;-89
2022/06/28 11:35:40;;;;;;;;;;;;;;;;;;5031148;28;19925;-89
2022/06/28 11:38:09;;;;;;;;;;;;;;;;;;5044556;28;20019;-89
2022/06/28 11:40:35;;;;;;;;;;;;;;;;;;5047752;28;20003;-88
2022/06/28 11:43:00;;;;;;;;;;;;;;;;;;5053397;28;20024;-89
2022/06/28 11:45:25;;;;;;;;;;;;;;;;;;5040355;28;19927;-89
2022/06/28 11:47:50;;;;;;;;;;;;;;;;;;5057818;28;19927;-88
2022/06/28 11:50:16;;;;;;;;;;;;;;;;;;5039989;28;19929;-89
2022/06/28 11:52:41;;;;;;;;;;;;;;;;;;5055516;28;19927;-89
2022/06/28 11:55:06;;;;;;;;;;;;;;;;;;5048534;28;19930;-88
2022/06/28 11:57:31;;;;;;;;;;;;;;;;;;5049825;28;20006;-89
2022/06/28 11:59:56;;;;;;;;;;;;;;;;;;5048903;28;19921;-89
2022/06/28 12:02:21;;;;;;;;;;;;;;;;;;5072318;28;19928;-88
2022/06/28 12:04:46;;;;;;;;;;;;;;;;;;5074270;28;20387;-88
2022/06/28 12:07:12;;;;;;;;;;;;;;;;;;5057453;28;19928;-89
2022/06/28 12:09:37;;;;;;;;;;;;;;;;;;5075379;28;19928;-89
2022/06/28 12:12:03;;;;;;;;;;;;;;;;;;5070469;28;20019;-88
2022/06/28 12:14:28;;;;;;;;;;;;;;;;;;5057132;28;19920;-88
2022/06/28 12:16:53;;;;;;;;;;;;;;;;;;5060575;28;20291;-88
2022/06/28 12:19:18;;;;;;;;;;;;;;;;;;5053272;28;19921;-89
2022/06/28 12:21:43;;;;;;;;;;;;;;;;;;5049107;28;19920;-89
2022/06/28 12:24:08;;;;;;;;;;;;;;;;;;5059340;28;19919;-87
2022/06/28 12:26:33;;;;;;;;;;;;;;;;;;5072831;28;19912;-87
2022/06/28 12:28:59;;;;;;;;;;;;;;;;;;5071965;28;19919;-87
2022/06/28 12:31:24;;;;;;;;;;;;;;;;;;5075247;28;20038;-87
2022/06/28 12:33:49;;;;;;;;;;;;;;;;;;5068080;28;20375;-87
2022/06/28 12:36:14;;;;;;;;;;;;;;;;;;5055365;28;19940;-87
2022/06/28 12:38:39;;;;;;;;;;;;;;;;;;5069143;28;19920;-87
2022/06/28 12:41:04;;;;;;;;;;;;;;;;;;5065399;28;19955;-87
2022/06/28 12:43:29;;;;;;;;;;;;;;;;;;5069564;28;19912;-88
2022/06/28 12:45:55;;;;;;;;;;;;;;;;;;5068118;28;19916;-88
2022/06/28 12:48:20;;;;;;;;;;;;;;;;;;5072226;28;20008;-88
2022/06/28 12:50:45;;;;;;;;;;;;;;;;;;5077162;28;19943;-87
2022/06/28 12:53:10;;;;;;;;;;;;;;;;;;5062033;28;19927;-88
2022/06/28 12:55:35;;;;;;;;;;;;;;;;;;5056886;28;20366;-88
2022/06/28 12:58:00;;;;;;;;;;;;;;;;;;5062286;28;20383;-87
2022/06/28 13:00:25;;;;;;;;;;;;;;;;;;5063898;28;19912;-87
2022/06/28 13:02:50;;;;;;;;;;;;;;;;;;5061424;28;19920;-87
2022/06/28 13:05:15;;;;;;;;;;;;;;;;;;5071305;28;19913;-88
2022/06/28 13:07:41;;;;;;;;;;;;;;;;;;5069810;28;19952;-88
2022/06/28 13:10:06;;;;;;;;;;;;;;;;;;5075761;28;19927;-88
2022/06/28 13:12:31;;;;;;;;;;;;;;;;;;5069275;28;19970;-88
2022/06/28 13:14:57;;;;;;;;;;;;;;;;;;5072118;28;19921;-87
2022/06/28 13:17:22;;;;;;;;;;;;;;;;;;5069043;28;19927;-88
2022/06/28 13:19:47;;;;;;;;;;;;;;;;;;5072325;28;20276;-88
2022/06/28 13:22:12;;;;;;;;;;;;;;;;;;5071901;28;20050;-88
2022/06/28 13:24:38;;;;;;;;;;;;;;;;;;5075613;28;19935;-88
2022/06/28 13:27:04;;;;;;;;;;;;;;;;;;5072748;28;19916;-87
2022/06/28 13:29:29;;;;;;;;;;;;;;;;;;5073476;28;20371;-87
2022/06/28 13:31:54;;;;;;;;;;;;;;;;;;5075379;28;19912;-88
2022/06/28 13:34:20;;;;;;;;;;;;;;;;;;5066264;28;20402;-88
2022/06/28 13:36:47;;;;;;;;;;;;;;;;;;5060084;28;20449;-88
2022/06/28 13:39:12;;;;;;;;;;;;;;;;;;5065860;28;20700;-88
2022/06/28 13:41:37;;;;;;;;;;;;;;;;;;5068438;28;19912;-88
2022/06/28 13:44:02;;;;;;;;;;;;;;;;;;5069051;28;19919;-88
2022/06/28 13:46:27;;;;;;;;;;;;;;;;;;5075029;28;19913;-88
2022/06/28 13:48:52;;;;;;;;;;;;;;;;;;5069840;28;19916;-87
2022/06/28 13:51:18;;;;;;;;;;;;;;;;;;5071201;28;19919;-88
2022/06/28 13:53:43;;;;;;;;;;;;;;;;;;5081253;28;19920;-88
2022/06/28 13:56:09;;;;;;;;;;;;;;;;;;5070017;28;19931;-87
2022/06/28 13:58:34;;;;;;;;;;;;;;;;;;5076275;28;20381;-88
2022/06/28 14:00:59;;;;;;;;;;;;;;;;;;5086541;22;19927;-88
2022/06/28 14:03:24;;;;;;;;;;;;;;;;;;5089868;28;19919;-88
2022/06/28 14:05:50;;;;;;;;;;;;;;;;;;5092008;28;19913;-88
2022/06/28 14:08:15;;;;;;;;;;;;;;;;;;5086324;28;19944;-88
2022/06/28 14:10:40;;;;;;;;;;;;;;;;;;5094146;28;19920;-87
2022/06/28 14:13:05;;;;;;;;;;;;;;;;;;5090232;28;19916;-88
2022/06/28 14:15:30;;;;;;;;;;;;;;;;;;5086436;28;19923;-87
2022/06/28 14:17:56;;;;;;;;;;;;;;;;;;5086525;28;20295;-88
2022/06/28 14:20:22;;;;;;;;;;;;;;;;;;5087346;28;19926;-88
2022/06/28 14:22:47;;;;;;;;;;;;;;;;;;5091893;28;19964;-88
2022/06/28 14:25:12;;;;;;;;;;;;;;;;;;5083993;28;19916;-88
2022/06/28 14:27:38;;;;;;;;;;;;;;;;;;5089255;28;19911;-88
2022/06/28 14:30:03;;;;;;;;;;;;;;;;;;5096048;28;19912;-88
2022/06/28 14:32:28;;;;;;;;;;;;;;;;;;5092702;28;19923;-88
2022/06/28 14:34:53;;;;;;;;;;;;;;;;;;5088635;28;19959;-87
2022/06/28 14:37:18;;;;;;;;;;;;;;;;;;5085489;28;20422;-87
2022/06/28 14:39:43;;;;;;;;;;;;;;;;;;5089692;28;20404;-87
2022/06/28 14:42:08;;;;;;;;;;;;;;;;;;5090182;28;19912;-88
2022/06/28 14:44:34;;;;;;;;;;;;;;;;;;5090249;28;19970;-87
2022/06/28 14:46:59;;;;;;;;;;;;;;;;;;5092555;28;19916;-88
2022/06/28 14:49:24;;;;;;;;;;;;;;;;;;5090354;28;19916;-87
2022/06/28 14:51:49;;;;;;;;;;;;;;;;;;5090492;28;19916;-87
2022/06/28 14:54:14;;;;;;;;;;;;;;;;;;5087537;28;20394;-87
2022/06/28 14:56:40;;;;;;;;;;;;;;;;;;5093184;28;19919;-87
2022/06/28 14:59:05;;;;;;;;;;;;;;;;;;5096369;28;20290;-87
2022/06/28 15:01:30;;;;;;;;;;;;;;;;;;5094604;28;20018;-88
2022/06/28 15:03:55;;;;;;;;;;;;;;;;;;5089547;28;19912;-87
2022/06/28 15:06:20;;;;;;;;;;;;;;;;;;5096317;28;20371;-88
2022/06/28 15:08:45;;;;;;;;;;;;;;;;;;5094731;28;19918;-87
2022/06/28 15:11:11;;;;;;;;;;;;;;;;;;5099512;28;19919;-88
2022/06/28 15:13:36;;;;;;;;;;;;;;;;;;5093300;28;19954;-88
2022/06/28 15:16:01;;;;;;;;;;;;;;;;;;5093879;28;19912;-87
2022/06/28 15:18:26;;;;;;;;;;;;;;;;;;5097977;28;19927;-88
2022/06/28 15:20:53;;;;;;;;;;;;;;;;;;5101078;28;20275;-88
2022/06/28 15:31:30;;;;;;;;;;;;;;;;;;5091707;28;20007;-87
2022/06/28 15:33:55;;;;;;;;;;;;;;;;;;5104116;28;19978;-87
2022/06/28 15:36:20;;;;;;;;;;;;;;;;;;5094015;28;19985;-87
2022/06/28 15:38:46;;;;;;;;;;;;;;;;;;5093257;28;19985;-87
2022/06/28 15:41:11;;;;;;;;;;;;;;;;;;5094840;28;19935;-87
2022/06/28 15:43:36;;;;;;;;;;;;;;;;;;5094444;28;19916;-87
2022/06/28 15:46:01;;;;;;;;;;;;;;;;;;5095455;28;19919;-87
2022/06/28 15:48:26;;;;;;;;;;;;;;;;;;5095143;28;20438;-87
2022/06/28 15:50:52;;;;;;;;;;;;;;;;;;5094890;28;19908;-87
2022/06/28 15:53:17;;;;;;;;;;;;;;;;;;5107174;28;20262;-87
2022/06/28 15:55:42;;;;;;;;;;;;;;;;;;5097525;28;19916;-87
2022/06/28 15:58:07;;;;;;;;;;;;;;;;;;5099196;28;19912;-87
2022/06/28 16:00:32;;;;;;;;;;;;;;;;;;5099045;28;19953;-87
2022/06/28 16:02:58;;;;;;;;;;;;;;;;;;5106278;28;19939;-87
2022/06/28 16:05:24;;;;;;;;;;;;;;;;;;5096488;28;19999;-87
2022/06/28 16:07:49;;;;;;;;;;;;;;;;;;5098318;28;20324;-87
2022/06/28 16:10:14;;;;;;;;;;;;;;;;;;5091965;28;20362;-87
2022/06/28 16:13:00;;;;;;;;;;;;;;;;;;5097028;28;19916;-87
2022/06/28 16:15:26;;;;;;;;;;;;;;;;;;5078092;28;19966;-87
2022/06/28 16:17:51;;;;;;;;;;;;;;;;;;5078608;28;19913;-87
2022/06/28 16:20:16;;;;;;;;;;;;;;;;;;5078089;28;19916;-87
2022/06/28 16:22:42;;;;;;;;;;;;;;;;;;5078818;28;19916;-87
2022/06/28 16:25:07;;;;;;;;;;;;;;;;;;5099548;28;19916;-87
2022/06/28 16:27:32;;;;;;;;;;;;;;;;;;5099358;28;19916;-87
2022/06/28 16:29:58;;;;;;;;;;;;;;;;;;5098363;28;19908;-87
2022/06/28 16:32:23;;;;;;;;;;;;;;;;;;5098277;28;20452;-87
2022/06/28 16:34:48;;;;;;;;;;;;;;;;;;5098050;28;19904;-87
2022/06/28 16:37:13;;;;;;;;;;;;;;;;;;5097792;28;20003;-87
2022/06/28 16:39:38;;;;;;;;;;;;;;;;;;5097574;28;20455;-85
2022/06/28 16:42:03;;;;;;;;;;;;;;;;;;5097496;28;19912;-87
2022/06/28 16:44:28;;;;;;;;;;;;;;;;;;5099650;28;20363;-87
2022/06/28 16:46:53;;;;;;;;;;;;;;;;;;5098325;28;19908;-87
2022/06/28 16:49:19;;;;;;;;;;;;;;;;;;5098026;28;19915;-87
2022/06/28 16:51:44;;;;;;;;;;;;;;;;;;5098402;28;20373;-87
2022/06/28 16:54:09;;;;;;;;;;;;;;;;;;5098032;28;20090;-87
2022/06/28 16:56:34;;;;;;;;;;;;;;;;;;5098191;28;19916;-87